Time;durP1;ratioP1;P1;durP2;ratioP2;P2;SDS_P1;SDS_P2;PMS_P1;PMS_P2;Temp;Humidity;BMP_temperature;BMP_pressure;BME280_temperature;BME280_humidity;BME280_pressure;Samples;Min_cycle;Max_cycle;Signal;HPM_P1;HPM_P2
2022/08/03 00:01:37;;;;;;;3.80;3.50;;;;;;;18.49;53.88;100891.66;5089149;28;20152;-27
2022/08/03 00:04:06;;;;;;;4.15;3.13;;;;;;;18.47;53.91;100889.03;5086408;28;20023;-27
2022/08/03 00:06:31;;;;;;;7.20;3.63;;;;;;;18.46;53.74;100881.97;5083516;28;20031;-27
2022/08/03 00:08:57;;;;;;;3.55;3.28;;;;;;;18.42;53.78;100885.69;5091288;28;20027;-27
2022/08/03 00:11:22;;;;;;;3.90;3.60;;;;;;;18.39;53.93;100888.47;5090767;28;20375;-27
2022/08/03 00:13:48;;;;;;;4.10;3.67;;;;;;;18.36;53.92;100885.91;5089742;28;20131;-27
2022/08/03 00:16:13;;;;;;;4.20;3.53;;;;;;;18.32;53.75;100885.19;5091319;28;20069;-27
2022/08/03 00:18:39;;;;;;;5.00;3.53;;;;;;;18.28;53.91;100887.06;5072765;28;20077;-27
2022/08/03 00:21:05;;;;;;;3.80;3.35;;;;;;;18.23;54.05;100880.22;5072373;28;20103;-27
2022/08/03 00:23:30;;;;;;;4.47;3.63;;;;;;;18.20;54.07;100884.72;5087919;28;20123;-27
2022/08/03 00:25:56;;;;;;;4.28;3.88;;;;;;;18.22;54.15;100882.00;5087699;28;20020;-27
2022/08/03 00:28:21;;;;;;;4.38;3.97;;;;;;;18.19;53.99;100884.78;5069510;28;20035;-27
2022/08/03 00:30:47;;;;;;;5.20;4.05;;;;;;;18.15;54.05;100883.16;5053690;28;20024;-27
2022/08/03 00:33:12;;;;;;;3.85;3.53;;;;;;;18.11;54.22;100886.88;5087857;28;20396;-28
2022/08/03 00:35:37;;;;;;;4.57;4.15;;;;;;;18.13;54.18;100879.66;5089976;28;20031;-27
2022/08/03 00:38:03;;;;;;;4.47;3.97;;;;;;;18.02;54.49;100886.25;5068118;28;20024;-27
2022/08/03 00:40:29;;;;;;;3.97;3.67;;;;;;;18.02;54.11;100883.59;5089969;28;20024;-27
2022/08/03 00:42:57;;;;;;;4.53;3.95;;;;;;;17.98;54.47;100887.31;5071939;28;20020;-27
2022/08/03 00:45:27;;;;;;;5.25;3.40;;;;;;;17.94;54.48;100881.19;5088315;28;20028;-28
2022/08/03 00:47:53;;;;;;;3.92;3.60;;;;;;;17.91;54.79;100886.63;5089076;28;20034;-27
2022/08/03 00:50:19;;;;;;;4.53;4.03;;;;;;;17.88;54.81;100881.44;5090189;28;20028;-27
2022/08/03 00:52:45;;;;;;;3.90;3.38;;;;;;;17.87;54.83;100879.66;5088604;28;20038;-27
2022/08/03 00:55:11;;;;;;;5.75;3.83;;;;;;;17.84;54.89;100879.78;5067936;28;20023;-27
2022/08/03 00:57:36;;;;;;;3.50;3.20;;;;;;;17.81;54.84;100879.91;5079350;28;20027;-27
2022/08/03 01:00:04;;;;;;;3.97;3.67;;;;;;;17.80;55.06;100873.69;5072134;28;20133;-27
2022/08/03 01:02:29;;;;;;;5.97;4.03;;;;;;;17.76;54.98;100882.75;5089275;28;20028;-28
2022/08/03 01:04:55;;;;;;;4.10;3.80;;;;;;;17.72;55.15;100875.78;5072733;28;20031;-27
2022/08/03 01:07:32;;;;;;;4.25;3.80;;;;;;;17.74;54.99;100876.56;5090684;28;20038;-27
2022/08/03 01:10:24;;;;;;;4.32;3.92;;;;;;;17.74;55.25;100879.25;5089968;28;20116;-27
2022/08/03 01:12:53;;;;;;;4.00;3.63;;;;;;;17.67;55.16;100875.03;5050384;28;20406;-27
2022/08/03 01:15:43;;;;;;;3.95;3.65;;;;;;;17.64;55.24;100872.50;5087955;28;20471;-27
2022/08/03 01:18:17;;;;;;;3.92;3.63;;;;;;;17.65;55.39;100874.25;5075809;28;20091;-28
2022/08/03 01:20:52;;;;;;;6.28;3.80;;;;;;;17.66;55.52;100862.66;5089989;28;20043;-27
2022/08/03 01:23:33;;;;;;;6.50;4.35;;;;;;;17.59;55.29;100867.34;5072597;28;20047;-27
2022/08/03 01:26:03;;;;;;;4.13;3.72;;;;;;;17.54;55.61;100867.50;5073245;28;20027;-27
2022/08/03 01:28:46;;;;;;;4.03;3.63;;;;;;;17.51;55.78;100870.25;5070798;28;20111;-27
2022/08/03 01:31:15;;;;;;;4.00;3.67;;;;;;;17.51;55.97;100867.59;5086022;28;20016;-27
2022/08/03 01:33:42;;;;;;;4.75;4.05;;;;;;;17.46;55.91;100866.91;5090008;28;20450;-27
2022/08/03 01:36:13;;;;;;;7.90;3.85;;;;;;;17.52;55.97;100869.34;5071481;28;20040;-27
2022/08/03 01:38:44;;;;;;;3.58;3.38;;;;;;;17.49;55.91;100871.25;5074839;28;20035;-27
2022/08/03 01:41:24;;;;;;;4.97;3.72;;;;;;;17.40;55.93;100870.66;5061636;28;20153;-27
2022/08/03 01:43:52;;;;;;;3.88;3.58;;;;;;;17.42;55.98;100870.59;5077452;28;20021;-28
2022/08/03 01:46:19;;;;;;;4.43;3.47;;;;;;;17.40;56.18;100862.66;5084891;28;20047;-27
2022/08/03 01:48:46;;;;;;;4.13;3.72;;;;;;;17.35;55.94;100867.28;5070363;28;20024;-27
2022/08/03 01:51:12;;;;;;;4.10;3.80;;;;;;;17.35;56.21;100864.63;5085126;28;20554;-27
2022/08/03 01:53:41;;;;;;;4.03;3.72;;;;;;;17.29;56.26;100863.03;5072712;28;20107;-27
2022/08/03 01:56:07;;;;;;;4.13;3.83;;;;;;;17.27;56.32;100864.88;5086264;28;20035;-27
2022/08/03 01:58:34;;;;;;;3.55;3.25;;;;;;;17.26;56.43;100865.78;5097278;28;20024;-27
2022/08/03 02:01:00;;;;;;;4.43;4.03;;;;;;;17.28;56.35;100860.41;5074582;28;20140;-28
2022/08/03 02:03:28;;;;;;;3.58;3.28;;;;;;;17.25;56.49;100856.06;5074299;28;20035;-27
2022/08/03 02:05:54;;;;;;;5.22;3.95;;;;;;;17.22;56.69;100864.16;5093843;28;20012;-27
2022/08/03 02:08:20;;;;;;;4.03;3.72;;;;;;;17.18;56.54;100866.03;5075944;28;20483;-28
2022/08/03 02:10:46;;;;;;;3.60;3.22;;;;;;;17.17;56.77;100858.09;5075858;28;20059;-28
2022/08/03 02:13:12;;;;;;;3.97;3.67;;;;;;;17.11;56.92;100861.84;5055903;28;20052;-28
2022/08/03 02:15:38;;;;;;;3.92;3.63;;;;;;;17.10;56.57;100861.91;5089789;28;20032;-28
2022/08/03 02:18:05;;;;;;;3.85;3.55;;;;;;;17.10;56.90;100867.25;5071578;28;20024;-28
2022/08/03 02:20:31;;;;;;;3.88;3.58;;;;;;;17.08;56.87;100869.06;5076405;28;20016;-27
2022/08/03 02:22:57;;;;;;;4.38;3.95;;;;;;;17.03;56.78;100867.41;5077042;28;20157;-28
2022/08/03 02:25:22;;;;;;;3.58;3.33;;;;;;;17.07;56.76;100864.69;5092470;28;20031;-28
2022/08/03 02:27:52;;;;;;;4.13;3.67;;;;;;;17.04;56.82;100861.16;5093453;28;20016;-27
2022/08/03 02:30:19;;;;;;;4.25;3.92;;;;;;;16.98;57.01;100863.16;5073726;28;20032;-28
2022/08/03 02:32:48;;;;;;;4.05;3.72;;;;;;;16.95;57.08;100861.47;5072679;28;20045;-27
2022/08/03 02:35:16;;;;;;;4.82;3.35;;;;;;;16.95;57.23;100858.81;5089896;28;20024;-27
2022/08/03 02:37:45;;;;;;;4.47;3.65;;;;;;;16.95;57.15;100866.78;5074928;28;20024;-27
2022/08/03 02:40:12;;;;;;;3.78;3.47;;;;;;;16.90;57.22;100866.94;5093272;28;20103;-27
2022/08/03 02:42:38;;;;;;;4.40;4.05;;;;;;;16.89;57.26;100859.00;5073387;28;20028;-27
2022/08/03 02:45:05;;;;;;;3.60;3.38;;;;;;;16.89;57.49;100853.66;5067119;28;20600;-28
2022/08/03 02:47:31;;;;;;;5.13;4.10;;;;;;;16.87;57.20;100856.38;5075306;28;20479;-28
2022/08/03 02:49:59;;;;;;;3.85;3.55;;;;;;;16.87;57.33;100863.50;5091238;28;20031;-27
2022/08/03 02:52:25;;;;;;;4.07;3.58;;;;;;;16.83;57.46;100869.84;5074208;28;20054;-27
2022/08/03 02:54:54;;;;;;;4.18;3.78;;;;;;;16.84;57.51;100860.94;5072983;28;20379;-27
2022/08/03 02:57:20;;;;;;;4.10;3.80;;;;;;;16.76;57.70;100870.06;5069944;28;20114;-27
2022/08/03 02:59:46;;;;;;;4.03;3.63;;;;;;;16.76;57.85;100867.38;5078892;28;20100;-27
2022/08/03 03:02:13;;;;;;;4.40;4.00;;;;;;;16.72;57.67;100857.75;5088716;28;20089;-27
2022/08/03 03:04:39;;;;;;;4.43;4.03;;;;;;;16.72;57.97;100863.09;5068721;28;20047;-27
2022/08/03 03:07:04;;;;;;;4.32;3.92;;;;;;;16.68;57.73;100874.75;5066548;28;20424;-28
2022/08/03 03:09:31;;;;;;;5.00;4.22;;;;;;;16.67;57.92;100870.31;5086764;28;20101;-27
2022/08/03 03:11:57;;;;;;;4.00;3.60;;;;;;;16.69;57.79;100868.50;5069816;28;20536;-27
2022/08/03 03:14:23;;;;;;;4.53;4.13;;;;;;;16.61;57.73;100865.22;5070119;28;20032;-27
2022/08/03 03:16:48;;;;;;;4.50;3.75;;;;;;;16.62;57.76;100865.16;5074161;28;20028;-27
2022/08/03 03:19:15;;;;;;;4.25;3.85;;;;;;;16.60;57.83;100864.31;5072268;28;20020;-27
2022/08/03 03:21:42;;;;;;;4.32;3.92;;;;;;;16.56;57.80;100865.34;5055422;28;20103;-27
2022/08/03 03:24:08;;;;;;;4.32;3.85;;;;;;;16.60;57.74;100860.81;5084882;28;20032;-27
2022/08/03 03:26:33;;;;;;;5.28;4.10;;;;;;;16.53;57.67;100861.00;5088477;28;20023;-27
2022/08/03 03:29:00;;;;;;;4.28;3.88;;;;;;;16.53;57.90;100866.31;5083392;28;20506;-27
2022/08/03 03:31:25;;;;;;;5.78;4.35;;;;;;;16.49;57.94;100856.69;5090007;28;20031;-28
2022/08/03 03:33:51;;;;;;;3.95;3.65;;;;;;;16.45;57.88;100849.72;5092291;28;20024;-27
2022/08/03 03:36:17;;;;;;;7.18;4.13;;;;;;;16.45;58.04;100854.16;5065543;28;20031;-27
2022/08/03 03:38:42;;;;;;;5.30;4.07;;;;;;;16.44;58.18;100847.94;5077777;28;20085;-27
2022/08/03 03:41:08;;;;;;;6.35;4.28;;;;;;;16.46;58.10;100851.47;5077438;28;20028;-28
2022/08/03 03:43:34;;;;;;;4.15;3.85;;;;;;;16.40;58.13;100854.28;5070296;28;20032;-27
2022/08/03 03:45:59;;;;;;;4.95;4.35;;;;;;;16.40;57.95;100846.31;5089993;28;20491;-28
2022/08/03 03:48:25;;;;;;;4.70;4.20;;;;;;;16.42;58.28;100857.78;5066269;28;21072;-27
2022/08/03 03:50:50;;;;;;;4.90;4.32;;;;;;;16.40;58.04;100851.63;5091664;28;20059;-28
2022/08/03 03:53:16;;;;;;;6.25;4.10;;;;;;;16.42;58.04;100855.13;5091640;28;20402;-28
2022/08/03 03:55:41;;;;;;;5.18;4.70;;;;;;;16.37;58.12;100855.25;5089155;28;20506;-28
2022/08/03 03:58:07;;;;;;;6.82;4.47;;;;;;;16.35;58.28;100856.25;5074149;28;20040;-27
2022/08/03 04:00:32;;;;;;;4.72;4.18;;;;;;;16.29;58.22;100854.63;5071613;28;20030;-28
2022/08/03 04:02:58;;;;;;;6.57;4.40;;;;;;;16.28;58.62;100858.22;5087698;28;20028;-27
2022/08/03 04:11:12;;;;;;;4.43;3.78;;;;;;;16.24;58.64;100865.41;5095834;28;20536;-27
2022/08/03 04:13:43;;;;;;;4.22;3.92;;;;;;;16.23;58.68;100865.44;5067131;28;20031;-27
2022/08/03 04:16:12;;;;;;;4.38;4.03;;;;;;;16.25;58.49;100864.50;5102641;28;20030;-28
2022/08/03 04:18:39;;;;;;;5.43;4.30;;;;;;;16.24;58.63;100865.41;5073352;28;20035;-28
2022/08/03 04:21:08;;;;;;;4.63;4.20;;;;;;;16.22;58.61;100864.59;5090314;28;20031;-28
2022/08/03 04:23:34;;;;;;;13.15;4.95;;;;;;;16.10;61.63;100870.25;5068379;28;20115;-28
2022/08/03 04:26:02;;;;;;;5.03;4.55;;;;;;;16.14;62.20;100877.25;5068305;28;20027;-27
2022/08/03 04:28:28;;;;;;;6.90;4.65;;;;;;;16.09;62.55;100871.19;5089648;28;20093;-27
2022/08/03 04:30:55;;;;;;;7.43;5.25;;;;;;;16.08;63.30;100878.31;5088710;28;20016;-27
2022/08/03 04:33:23;;;;;;;5.43;4.93;;;;;;;16.06;63.68;100872.16;5072691;28;20043;-28
2022/08/03 04:35:50;;;;;;;6.38;4.88;;;;;;;16.05;63.47;100878.41;5087258;28;20110;-27
2022/08/03 04:38:17;;;;;;;5.85;4.60;;;;;;;16.07;62.68;100881.88;5089227;28;20102;-27
2022/08/03 04:40:43;;;;;;;4.90;4.50;;;;;;;16.18;63.34;100881.56;5068977;28;20020;-28
2022/08/03 04:43:10;;;;;;;4.50;4.07;;;;;;;16.26;63.12;100886.66;5072504;28;20156;-27
2022/08/03 04:45:36;;;;;;;4.63;4.22;;;;;;;16.20;62.79;100887.69;5071016;28;20020;-27
2022/08/03 04:48:02;;;;;;;6.85;4.68;;;;;;;16.33;63.23;100887.34;5067732;28;20035;-27
2022/08/03 04:50:28;;;;;;;6.15;4.50;;;;;;;16.36;62.88;100881.94;5071921;28;20493;-28
2022/08/03 04:52:54;;;;;;;4.60;4.20;;;;;;;16.36;62.58;100885.47;5070189;28;20036;-27
2022/08/03 04:55:30;;;;;;;4.63;4.03;;;;;;;16.40;62.88;100884.47;5086974;28;20038;-28
2022/08/03 04:57:56;;;;;;;4.85;4.45;;;;;;;16.44;62.80;100887.03;5090341;28;20487;-28
2022/08/03 05:00:22;;;;;;;7.60;5.10;;;;;;;16.46;62.27;100883.41;5087815;28;20027;-27
2022/08/03 05:02:48;;;;;;;6.60;4.38;;;;;;;16.47;62.32;100890.47;5088280;28;20020;-27
2022/08/03 05:05:14;;;;;;;5.15;4.63;;;;;;;16.52;62.11;100893.00;5090991;28;20437;-27
2022/08/03 05:07:40;;;;;;;5.38;4.95;;;;;;;16.52;62.56;100887.66;5091564;28;20072;-27
2022/08/03 05:10:07;;;;;;;5.93;4.35;;;;;;;16.57;62.73;100892.84;5091032;28;20032;-27
2022/08/03 05:12:32;;;;;;;4.30;3.90;;;;;;;16.59;63.01;100896.31;5091200;28;20368;-27
2022/08/03 05:14:58;;;;;;;5.15;4.60;;;;;;;16.62;62.88;100888.25;5091230;28;20598;-27
2022/08/03 05:17:23;;;;;;;4.75;4.30;;;;;;;16.70;61.91;100888.88;5072851;28;20024;-27
2022/08/03 05:19:48;;;;;;;4.82;4.25;;;;;;;16.74;62.08;100893.19;5091067;28;20032;-27
2022/08/03 05:22:14;;;;;;;5.22;4.53;;;;;;;16.83;61.65;100891.16;5090802;28;20032;-27
2022/08/03 05:24:39;;;;;;;5.50;4.35;;;;;;;16.89;61.92;100894.50;5090977;28;20471;-28
2022/08/03 05:27:04;;;;;;;4.53;4.13;;;;;;;16.95;61.59;100892.56;5092355;28;20413;-27
2022/08/03 05:29:29;;;;;;;4.40;4.00;;;;;;;17.01;62.16;100893.22;5094740;28;20032;-27
2022/08/03 05:31:55;;;;;;;4.88;3.95;;;;;;;17.07;61.85;100894.00;5094942;28;20073;-27
2022/08/03 05:34:20;;;;;;;4.65;4.25;;;;;;;17.18;61.83;100897.16;5065106;28;20115;-27
2022/08/03 05:36:45;;;;;;;4.90;4.20;;;;;;;17.20;62.29;100889.97;5075736;28;20036;-27
2022/08/03 05:39:11;;;;;;;4.72;4.32;;;;;;;17.31;61.37;100893.16;5087780;28;20025;-27
2022/08/03 05:41:36;;;;;;;6.07;3.72;;;;;;;17.36;61.22;100892.13;5057079;28;20395;-27
2022/08/03 05:44:01;;;;;;;4.35;3.92;;;;;;;17.42;60.87;100881.25;5085490;28;20047;-28
2022/08/03 05:46:27;;;;;;;4.38;4.00;;;;;;;17.49;60.44;100887.25;5094449;28;20522;-27
2022/08/03 05:48:52;;;;;;;4.15;3.85;;;;;;;17.55;60.33;100877.22;5076952;28;20020;-28
2022/08/03 05:51:18;;;;;;;6.18;4.07;;;;;;;17.60;60.69;100881.56;5094916;28;20463;-28
2022/08/03 05:53:44;;;;;;;5.45;4.20;;;;;;;17.65;60.50;100877.78;5076527;28;20031;-28
2022/08/03 05:56:10;;;;;;;4.78;4.15;;;;;;;17.74;60.33;100881.91;5094587;28;20082;-28
2022/08/03 05:58:35;;;;;;;6.10;3.92;;;;;;;17.79;60.36;100887.97;5095015;28;20406;-28
2022/08/03 06:01:01;;;;;;;4.68;3.72;;;;;;;17.82;60.29;100877.19;5075824;28;20490;-27
2022/08/03 06:03:26;;;;;;;4.93;4.03;;;;;;;17.87;60.44;100876.16;5094627;28;20102;-28
2022/08/03 06:05:54;;;;;;;4.25;3.85;;;;;;;17.93;60.09;100878.56;5094287;28;20081;-28
2022/08/03 06:08:19;;;;;;;4.32;3.80;;;;;;;18.00;60.11;100884.56;5095060;28;20027;-28
2022/08/03 06:10:45;;;;;;;4.90;4.00;;;;;;;18.08;59.52;100885.16;5074876;28;20024;-28
2022/08/03 06:13:10;;;;;;;5.28;3.60;;;;;;;18.16;59.65;100884.88;5094004;28;20039;-28
2022/08/03 06:15:35;;;;;;;4.20;3.53;;;;;;;18.24;59.21;100881.94;5094425;28;20085;-28
2022/08/03 06:18:01;;;;;;;3.60;3.28;;;;;;;18.33;59.11;100882.44;5094085;28;20230;-28
2022/08/03 06:20:26;;;;;;;4.47;3.30;;;;;;;18.44;59.20;100883.84;5094548;28;20404;-28
2022/08/03 06:22:52;;;;;;;6.68;3.85;;;;;;;18.53;58.96;100880.81;5094392;28;20455;-27
2022/08/03 06:25:18;;;;;;;3.85;3.55;;;;;;;18.64;58.96;100891.06;5093474;28;20082;-27
2022/08/03 06:27:43;;;;;;;4.55;4.13;;;;;;;18.75;58.67;100890.66;5076090;28;20095;-27
2022/08/03 06:30:11;;;;;;;4.00;3.60;;;;;;;18.89;58.30;100883.84;5094058;28;20430;-28
2022/08/03 06:32:40;;;;;;;5.32;4.00;;;;;;;19.05;58.37;100882.31;5093850;28;20120;-27
2022/08/03 06:35:07;;;;;;;5.22;3.78;;;;;;;19.21;58.25;100882.53;5093819;28;20028;-28
2022/08/03 06:37:49;;;;;;;4.47;3.92;;;;;;;19.33;58.11;100886.53;5094052;28;20020;-27
2022/08/03 06:40:16;;;;;;;6.63;4.10;;;;;;;19.47;58.02;100885.03;5089455;28;20107;-28
2022/08/03 06:42:42;;;;;;;8.93;3.70;;;;;;;19.59;57.80;100889.88;5075517;28;20077;-27
2022/08/03 06:45:08;;;;;;;5.22;3.65;;;;;;;19.74;57.77;100887.47;5093905;28;20024;-27
2022/08/03 06:47:35;;;;;;;4.28;3.40;;;;;;;19.88;57.92;100890.38;5075978;28;20478;-27
2022/08/03 06:50:00;;;;;;;6.20;4.10;;;;;;;20.00;57.59;100893.47;5093951;28;20024;-28
2022/08/03 06:52:26;;;;;;;3.92;3.42;;;;;;;20.18;57.43;100896.25;5093350;28;20372;-27
2022/08/03 06:54:51;;;;;;;4.82;4.07;;;;;;;20.35;57.65;100893.66;5075256;28;20020;-27
2022/08/03 06:57:17;;;;;;;7.03;3.40;;;;;;;20.53;56.74;100891.03;5077657;28;20024;-27
2022/08/03 06:59:42;;;;;;;3.40;3.20;;;;;;;20.66;56.50;100890.44;5073418;28;20389;-27
2022/08/03 07:02:09;;;;;;;3.70;3.40;;;;;;;20.77;56.36;100889.00;5077675;28;20050;-27
2022/08/03 07:04:34;;;;;;;7.57;3.45;;;;;;;20.91;56.07;100890.16;5075320;28;20027;-28
2022/08/03 07:06:59;;;;;;;15.15;5.10;;;;;;;21.13;55.42;100895.31;5076139;28;20020;-28
2022/08/03 07:09:25;;;;;;;16.85;4.28;;;;;;;21.31;54.61;100892.66;5087809;28;20031;-27
2022/08/03 07:11:50;;;;;;;19.88;4.43;;;;;;;21.48;55.20;100899.81;5074354;28;20024;-28
2022/08/03 07:14:16;;;;;;;15.20;4.45;;;;;;;21.59;55.13;100890.34;5093523;28;20134;-28
2022/08/03 07:16:41;;;;;;;9.35;3.90;;;;;;;21.72;54.76;100885.22;5074651;28;20116;-27
2022/08/03 07:19:07;;;;;;;8.57;4.68;;;;;;;21.87;54.70;100889.78;5093833;28;20054;-27
2022/08/03 07:21:32;;;;;;;4.22;3.33;;;;;;;22.03;54.31;100880.91;5075100;28;20089;-27
2022/08/03 07:23:57;;;;;;;8.18;3.97;;;;;;;22.23;54.28;100881.63;5075102;28;20429;-28
2022/08/03 07:26:22;;;;;;;6.28;3.38;;;;;;;22.39;54.57;100885.22;5093180;28;20023;-28
2022/08/03 07:28:48;;;;;;;11.68;3.85;;;;;;;22.56;53.81;100883.41;5092998;28;20024;-28
2022/08/03 07:31:13;;;;;;;5.40;3.55;;;;;;;22.69;53.81;100883.59;5092345;28;20020;-27
2022/08/03 07:33:38;;;;;;;5.05;3.30;;;;;;;22.88;52.98;100891.44;5092519;28;20541;-28
2022/08/03 07:36:04;;;;;;;6.13;3.90;;;;;;;22.99;53.33;100881.91;5088323;28;20032;-28
2022/08/03 07:38:29;;;;;;;5.68;3.83;;;;;;;23.14;52.90;100886.38;5076976;28;20081;-28
2022/08/03 07:40:54;;;;;;;4.18;3.30;;;;;;;23.32;52.03;100888.94;5082490;28;20099;-28
2022/08/03 07:43:20;;;;;;;4.30;3.40;;;;;;;23.53;52.28;100885.94;5076018;28;20054;-27
2022/08/03 07:45:45;;;;;;;81.05;9.85;;;;;;;23.69;52.11;100886.75;5087437;28;20066;-28
2022/08/03 07:48:10;;;;;;;10.23;3.80;;;;;;;23.86;51.72;100883.94;5080970;28;20035;-28
2022/08/03 07:50:36;;;;;;;15.45;4.65;;;;;;;23.99;52.12;100878.66;5086880;28;20091;-28
2022/08/03 07:53:01;;;;;;;12.05;4.25;;;;;;;24.08;51.54;100878.94;5084755;28;20604;-27
2022/08/03 07:55:27;;;;;;;13.27;4.72;;;;;;;24.23;51.79;100888.91;5034439;28;20037;-28
2022/08/03 07:58:16;;;;;;;53.92;9.95;;;;;;;24.44;51.51;100876.72;5052594;28;20120;-28
2022/08/03 08:00:43;;;;;;;23.25;4.50;;;;;;;24.67;50.96;100877.03;5068147;28;20024;-28
2022/08/03 08:03:09;;;;;;;10.77;4.43;;;;;;;24.84;50.27;100877.78;5058213;28;20514;-28
2022/08/03 08:05:34;;;;;;;13.68;4.53;;;;;;;25.04;50.20;100873.75;5052256;28;20024;-28
2022/08/03 08:08:00;;;;;;;15.10;4.18;;;;;;;25.18;49.63;100882.75;5052372;28;20392;-28
2022/08/03 08:10:26;;;;;;;6.70;3.90;;;;;;;25.27;49.19;100882.13;5059011;28;20031;-28
2022/08/03 08:12:51;;;;;;;4.22;3.10;;;;;;;25.47;48.85;100875.34;5071976;28;20040;-27
2022/08/03 08:15:17;;;;;;;7.70;3.33;;;;;;;25.58;48.95;100876.47;5072239;28;20419;-28
2022/08/03 08:17:49;;;;;;;5.15;3.40;;;;;;;25.73;49.01;100883.50;5056591;28;20047;-28
2022/08/03 08:20:17;;;;;;;5.90;3.28;;;;;;;25.88;48.42;100883.41;5068627;28;20031;-28
2022/08/03 08:22:43;;;;;;;6.38;3.53;;;;;;;26.06;47.61;100873.09;5065186;28;20027;-28
2022/08/03 08:25:08;;;;;;;4.55;3.28;;;;;;;26.19;48.00;100877.63;5071838;28;20020;-27
2022/08/03 08:27:40;;;;;;;9.25;2.95;;;;;;;26.30;47.50;100872.31;5063889;28;20111;-28
2022/08/03 08:30:06;;;;;;;5.72;2.92;;;;;;;26.42;47.55;100869.69;5051911;28;20017;-27
2022/08/03 08:32:31;;;;;;;3.47;2.83;;;;;;;26.51;47.21;100869.88;5051937;28;20032;-28
2022/08/03 08:34:56;;;;;;;4.13;2.42;;;;;;;26.75;45.65;100868.19;5051946;28;20032;-28
2022/08/03 08:37:22;;;;;;;5.60;3.13;;;;;;;26.85;45.49;100876.47;5070768;28;20024;-27
2022/08/03 08:39:47;;;;;;;2.90;2.40;;;;;;;26.92;46.16;100872.31;5072944;28;20077;-27
2022/08/03 08:42:14;;;;;;;3.30;3.00;;;;;;;27.13;44.55;100866.28;5092235;28;20028;-28
2022/08/03 08:44:39;;;;;;;5.82;2.47;;;;;;;27.26;43.89;100872.47;5073299;28;20031;-27
2022/08/03 08:47:07;;;;;;;3.10;2.47;;;;;;;27.39;44.16;100871.50;5091149;28;20023;-27
2022/08/03 08:49:34;;;;;;;8.32;3.45;;;;;;;27.54;43.60;100875.72;5073611;28;20056;-28
2022/08/03 08:52:02;;;;;;;3.55;2.47;;;;;;;27.76;42.41;100870.50;5091356;28;20106;-28
2022/08/03 08:54:28;;;;;;;2.65;2.22;;;;;;;27.90;42.02;100866.69;5073558;28;20212;-27
2022/08/03 08:56:56;;;;;;;2.67;2.08;;;;;;;28.03;41.91;100867.44;5060988;28;20111;-25
2022/08/03 08:59:23;;;;;;;3.97;2.53;;;;;;;28.02;43.30;100871.13;5053581;28;20403;-25
2022/08/03 09:01:48;;;;;;;2.03;1.85;;;;;;;28.15;42.10;100867.44;5080946;28;20484;-25
2022/08/03 09:04:13;;;;;;;5.80;2.10;;;;;;;28.22;42.94;100871.38;5091090;28;20463;-28
2022/08/03 09:06:39;;;;;;;4.47;2.40;;;;;;;28.32;42.67;100870.63;5060041;28;20533;-28
2022/08/03 09:09:05;;;;;;;2.90;2.15;;;;;;;28.36;43.34;100866.69;5090372;28;20459;-28
2022/08/03 09:11:31;;;;;;;4.55;2.28;;;;;;;28.50;42.32;100863.69;5090532;28;20028;-27
2022/08/03 09:13:57;;;;;;;2.70;2.38;;;;;;;28.62;42.91;100861.81;5073796;28;20051;-28
2022/08/03 09:16:23;;;;;;;6.63;2.80;;;;;;;28.76;42.59;100860.66;5090934;28;20028;-28
2022/08/03 09:18:50;;;;;;;3.42;2.45;;;;;;;28.93;41.89;100855.69;5086857;28;20097;-28
2022/08/03 09:21:25;;;;;;;2.75;2.40;;;;;;;29.15;41.44;100856.56;5071122;28;20017;-28
2022/08/03 09:23:55;;;;;;;3.22;2.17;;;;;;;29.24;41.41;100860.34;5072253;28;20020;-28
2022/08/03 09:26:21;;;;;;;;;;;;;;;29.31;41.71;100859.69;5091991;28;20019;-27
2022/08/03 09:29:07;;;;;;;2.90;2.30;;;;;;;29.35;42.04;100854.00;5091277;28;20015;-28
2022/08/03 09:31:38;;;;;;;2.20;2.10;;;;;;;29.61;40.83;100853.59;5091197;28;20020;-28
2022/08/03 09:34:09;;;;;;;2.40;2.08;;;;;;;29.81;39.86;100852.69;5059523;28;20028;-28
2022/08/03 09:36:45;;;;;;;2.38;2.17;;;;;;;29.97;40.32;100845.88;5087411;28;20032;-28
2022/08/03 09:39:15;;;;;;;2.53;2.33;;;;;;;30.06;39.55;100846.91;5090785;28;20081;-28
2022/08/03 09:41:44;;;;;;;;;;;;;;;30.23;39.32;100850.03;5091721;28;20500;-28
2022/08/03 09:44:09;;;;;;;4.13;2.40;;;;;;;30.16;40.78;100841.53;5090708;28;19958;-28
2022/08/03 09:47:05;;;;;;;2.58;2.35;;;;;;;30.17;41.26;100846.84;5072926;28;20561;-28
2022/08/03 09:49:30;;;;;;;3.60;2.20;;;;;;;30.46;38.76;100848.78;5056025;28;20548;-28
2022/08/03 09:51:59;;;;;;;2.35;2.25;;;;;;;30.66;38.81;100847.94;5090979;28;20032;-28
2022/08/03 09:54:26;;;;;;;2.30;2.10;;;;;;;30.65;39.42;100843.50;5091422;28;20020;-28
2022/08/03 09:56:52;;;;;;;2.47;2.28;;;;;;;30.72;40.20;100841.94;5078702;28;20510;-28
2022/08/03 09:59:28;;;;;;;4.32;2.05;;;;;;;30.77;40.38;100839.66;5083850;28;20032;-28
2022/08/03 10:01:55;;;;;;;1.98;1.88;;;;;;;30.86;40.22;100829.78;5072684;28;20499;-28
2022/08/03 10:04:22;;;;;;;2.30;2.20;;;;;;;30.98;40.35;100827.78;5090796;28;20032;-28
2022/08/03 10:07:08;;;;;;;1.92;1.83;;;;;;;31.02;40.37;100831.06;5090752;28;20020;-28
2022/08/03 10:09:34;;;;;;;2.00;1.90;;;;;;;31.09;40.69;100833.06;5091296;28;20097;-28
2022/08/03 10:12:09;;;;;;;2.10;2.00;;;;;;;31.41;38.41;100831.00;5091195;28;20472;-28
2022/08/03 10:14:37;;;;;;;5.20;1.92;;;;;;;31.57;37.78;100826.81;5093141;28;20024;-27
2022/08/03 10:17:03;;;;;;;2.28;2.08;;;;;;;31.68;37.14;100817.59;5094405;28;20055;-28
2022/08/03 10:19:28;;;;;;;4.40;2.08;;;;;;;31.75;36.06;100824.16;5086258;28;20051;-28
2022/08/03 10:22:02;;;;;;;5.53;2.75;;;;;;;31.72;38.36;100819.88;5075931;28;20027;-28
2022/08/03 10:24:29;;;;;;;4.15;2.55;;;;;;;31.82;37.43;100813.50;5094514;28;20028;-28
2022/08/03 10:27:01;;;;;;;3.78;2.47;;;;;;;31.86;38.33;100817.66;5075940;28;20119;-28
2022/08/03 10:29:27;;;;;;;5.82;3.35;;;;;;;31.90;38.23;100804.59;5094571;28;20433;-28
2022/08/03 10:31:55;;;;;;;2.45;2.25;;;;;;;31.99;38.15;100814.59;5075819;28;20058;-27
2022/08/03 10:34:33;;;;;;;2.55;2.28;;;;;;;32.20;36.32;100808.00;5093972;28;20391;-28
2022/08/03 10:36:59;;;;;;;2.33;2.13;;;;;;;32.30;35.64;100805.25;5084194;28;20020;-28
2022/08/03 10:39:27;;;;;;;2.55;2.33;;;;;;;32.25;36.51;100812.00;5075970;28;20016;-28
2022/08/03 10:41:55;;;;;;;2.50;2.30;;;;;;;32.31;35.63;100802.31;5076219;28;20020;-28
2022/08/03 10:44:23;;;;;;;3.72;2.70;;;;;;;32.31;35.32;100806.94;5075532;28;20059;-28
2022/08/03 10:46:49;;;;;;;1.98;1.88;;;;;;;32.32;36.89;100804.06;5075266;28;20020;-28
2022/08/03 10:49:16;;;;;;;2.25;2.05;;;;;;;32.48;35.93;100802.56;5093820;28;20028;-28
2022/08/03 10:51:44;;;;;;;2.45;2.20;;;;;;;32.58;35.90;100799.75;5075925;28;20024;-28
2022/08/03 10:57:52;;;;;;;2.55;2.22;;;;;;;32.89;35.07;100802.03;5076666;28;20399;-28
2022/08/03 11:00:25;;;;;;;2.47;1.75;;;;;;;32.94;34.39;100796.13;5079857;28;20169;-28
2022/08/03 11:03:10;;;;;;;2.67;1.98;;;;;;;32.97;33.36;100799.38;5075493;28;20027;-27
2022/08/03 11:05:41;;;;;;;2.47;2.28;;;;;;;33.04;34.09;100788.69;5075384;28;20020;-27
2022/08/03 11:08:30;;;;;;;1.88;1.77;;;;;;;33.03;34.97;100795.19;5093551;28;20032;-28
2022/08/03 11:11:22;;;;;;;2.53;1.60;;;;;;;33.09;35.18;100789.09;5084832;28;20031;-28
2022/08/03 11:14:02;;;;;;;2.05;1.70;;;;;;;33.17;34.70;100790.16;5060055;28;20054;-28
2022/08/03 11:16:28;;;;;;;2.40;1.80;;;;;;;33.24;34.74;100792.06;5075940;28;20028;-28
2022/08/03 11:18:58;;;;;;;2.97;1.85;;;;;;;33.27;33.54;100796.34;5093327;28;20062;-27
2022/08/03 11:21:49;;;;;;;2.40;2.20;;;;;;;33.27;34.32;100796.34;5093267;28;20016;-28
2022/08/03 11:24:49;;;;;;;3.83;1.92;;;;;;;33.37;34.82;100797.13;5092519;28;20481;-28
2022/08/03 11:27:15;;;;;;;3.58;2.30;;;;;;;33.54;34.12;100791.72;5093088;28;20032;-28
2022/08/03 11:30:13;;;;;;;2.60;1.87;;;;;;;33.62;34.61;100783.63;5092837;28;20038;-27
2022/08/03 11:32:46;;;;;;;2.33;2.13;;;;;;;33.68;33.15;100786.72;5092981;28;20040;-27
2022/08/03 11:35:23;;;;;;;6.57;1.67;;;;;;;33.79;32.80;100781.81;5074566;28;20028;-28
2022/08/03 11:37:54;;;;;;;2.00;1.90;;;;;;;33.85;32.40;100782.16;5093153;28;20027;-28